createdAt,value
2018-04-02T00:00:52.375Z,60.14
2018-04-02T00:03:18.674Z,60.44
2018-04-02T00:05:44.992Z,61.23
2018-04-02T00:08:11.277Z,60.60
2018-04-02T00:10:39.506Z,60.76
2018-04-02T00:13:05.834Z,60.20
2018-04-02T00:15:32.211Z,58.20
2018-04-02T00:17:58.485Z,58.62
2018-04-02T00:20:24.762Z,57.94
2018-04-02T00:22:51.061Z,56.76
2018-04-02T00:25:17.331Z,56.04
2018-04-02T00:27:43.620Z,56.08
2018-04-02T00:30:09.930Z,54.33
2018-04-02T00:32:36.208Z,54.04
2018-04-02T00:35:02.472Z,53.85
2018-04-02T00:37:29.180Z,54.04
2018-04-02T00:39:55.665Z,53.24
2018-04-02T00:42:21.926Z,53.37
2018-04-02T00:44:48.183Z,52.99
2018-04-02T00:47:14.484Z,54.01
2018-04-02T00:49:40.736Z,54.28
2018-04-02T00:52:06.996Z,53.34
2018-04-02T00:54:33.304Z,53.75
2018-04-02T00:56:59.564Z,54.15
2018-04-02T00:59:25.848Z,55.10
2018-04-02T01:01:52.322Z,55.25
2018-04-02T01:04:21.561Z,55.06
2018-04-02T01:06:47.876Z,55.40
2018-04-02T01:09:14.129Z,55.96
2018-04-02T01:11:43.568Z,57.09
2018-04-02T01:14:09.843Z,57.75
2018-04-02T01:16:36.189Z,57.47
2018-04-02T01:19:02.448Z,58.96
2018-04-02T01:21:28.712Z,59.74
2018-04-02T01:23:55.188Z,61.01
2018-04-02T01:26:21.454Z,61.38
2018-04-02T01:28:47.810Z,61.66
2018-04-02T01:31:14.059Z,61.41
2018-04-02T01:33:40.425Z,61.76
2018-04-02T01:36:06.744Z,62.44
2018-04-02T01:38:32.991Z,62.17
2018-04-02T01:40:59.358Z,62.79
2018-04-02T01:43:25.613Z,62.63
2018-04-02T01:45:51.895Z,63.19
2018-04-02T01:48:18.216Z,62.92
2018-04-02T01:50:44.479Z,62.02
2018-04-02T01:53:10.732Z,61.42
2018-04-02T01:55:38.293Z,61.76
2018-04-02T01:58:04.568Z,61.35
2018-04-02T02:00:30.939Z,61.80
2018-04-02T02:02:57.261Z,62.05
2018-04-02T02:05:23.533Z,62.49
2018-04-02T02:07:49.859Z,62.50
2018-04-02T02:10:16.296Z,62.64
2018-04-02T02:12:45.829Z,63.20
2018-04-02T02:15:12.102Z,63.90
2018-04-02T02:17:38.365Z,63.38
2018-04-02T02:20:04.756Z,63.54
2018-04-02T02:22:31.689Z,64.17
2018-04-02T02:24:57.357Z,63.93
2018-04-02T02:27:24.023Z,64.57
2018-04-02T02:29:50.350Z,64.04
2018-04-02T02:32:16.704Z,65.92
2018-04-02T02:34:42.960Z,66.34
2018-04-02T02:37:09.222Z,67.52
2018-04-02T02:39:35.498Z,68.07
2018-04-02T02:42:01.858Z,68.04
2018-04-02T02:44:28.144Z,66.44
2018-04-02T02:46:54.725Z,65.37
2018-04-02T02:49:21.593Z,64.80
2018-04-02T02:51:48.279Z,65.45
2018-04-02T02:54:14.545Z,66.23
2018-04-02T02:56:40.825Z,66.52
2018-04-02T02:59:07.156Z,67.38
2018-04-02T03:01:33.432Z,68.19
2018-04-02T03:04:00.089Z,68.28
2018-04-02T03:06:26.360Z,69.15
2018-04-02T03:08:52.818Z,68.64
2018-04-02T03:11:19.100Z,69.70
2018-04-02T03:13:45.868Z,70.63
2018-04-02T03:16:12.156Z,70.64
2018-04-02T03:18:38.468Z,70.39
2018-04-02T03:21:04.729Z,70.20
2018-04-02T03:23:30.997Z,70.17
2018-04-02T03:25:57.376Z,70.69
2018-04-02T03:28:23.676Z,70.98
2018-04-02T03:30:49.933Z,70.91
2018-04-02T03:33:16.237Z,72.03
2018-04-02T03:35:42.511Z,72.22
2018-04-02T03:38:08.785Z,72.27
2018-04-02T03:40:35.253Z,72.90
2018-04-02T03:43:01.608Z,74.00
2018-04-02T03:45:27.872Z,72.56
2018-04-02T03:47:54.145Z,72.83
2018-04-02T03:50:20.443Z,73.54
2018-04-02T03:52:46.706Z,72.47
2018-04-02T03:55:13.077Z,74.22
2018-04-02T03:57:39.377Z,72.69
2018-04-02T04:00:05.757Z,72.40
2018-04-02T04:02:32.028Z,74.01
2018-04-02T04:04:58.492Z,73.10
2018-04-02T04:07:24.800Z,73.35
2018-04-02T04:09:51.078Z,73.57
2018-04-02T04:12:17.584Z,74.79
2018-04-02T04:14:43.865Z,74.21
2018-04-02T04:17:10.125Z,73.41
2018-04-02T04:19:36.420Z,73.87
2018-04-02T04:22:02.709Z,74.48
2018-04-02T04:24:28.991Z,74.29
2018-04-02T04:26:55.468Z,72.62
2018-04-02T04:29:21.724Z,72.55
2018-04-02T04:31:50.460Z,73.71
2018-04-02T04:34:16.765Z,73.96
2018-04-02T04:36:43.047Z,73.35
2018-04-02T04:39:09.309Z,73.21
2018-04-02T04:41:35.793Z,73.65
2018-04-02T04:44:02.240Z,72.55
2018-04-02T04:46:28.520Z,73.61
2018-04-02T04:48:57.312Z,73.70
2018-04-02T04:51:23.637Z,73.66
2018-04-02T04:53:49.900Z,72.97
2018-04-02T04:56:16.241Z,72.67
2018-04-02T04:58:42.496Z,72.72
2018-04-02T05:01:08.764Z,71.95
2018-04-02T05:03:35.481Z,72.96
2018-04-02T05:06:02.020Z,71.94
2018-04-02T05:08:28.290Z,72.17
2018-04-02T05:10:54.566Z,70.93
2018-04-02T05:13:20.936Z,67.72
2018-04-02T05:15:47.212Z,67.17
2018-04-02T05:18:13.473Z,66.61
2018-04-02T05:20:39.977Z,65.67
2018-04-02T05:23:06.390Z,66.30
2018-04-02T05:25:32.669Z,64.82
2018-04-02T05:27:58.941Z,64.85
2018-04-02T05:30:25.264Z,64.22
2018-04-02T05:32:51.546Z,65.16
2018-04-02T05:35:17.859Z,64.50
2018-04-02T05:37:44.122Z,63.22
2018-04-02T05:40:10.707Z,62.16
2018-04-02T05:42:37.018Z,62.43
2018-04-02T05:45:03.421Z,61.62
2018-04-02T05:47:29.696Z,62.41
2018-04-02T05:49:55.972Z,61.63
2018-04-02T05:52:22.294Z,52.72
2018-04-02T05:54:48.557Z,52.11
2018-04-02T05:57:14.813Z,50.42
2018-04-02T05:59:41.191Z,52.07
2018-04-02T06:02:07.456Z,52.05
2018-04-02T06:04:33.818Z,49.78
2018-04-02T06:07:00.186Z,47.60
2018-04-02T06:09:26.457Z,47.64
2018-04-02T06:11:53.382Z,48.55
2018-04-02T06:14:19.894Z,48.40
2018-04-02T06:16:46.153Z,47.16
2018-04-02T06:19:12.463Z,48.31
2018-04-02T06:21:38.734Z,47.25
2018-04-02T06:24:04.995Z,48.13
2018-04-02T06:26:31.456Z,47.57
2018-04-02T06:28:57.716Z,47.97
2018-04-02T06:31:23.972Z,47.24
2018-04-02T06:33:50.493Z,47.50
2018-04-02T06:36:16.805Z,46.75
2018-04-02T06:38:43.074Z,46.65
2018-04-02T06:41:09.336Z,45.82
2018-04-02T06:43:35.699Z,46.36
2018-04-02T06:46:01.964Z,46.05
2018-04-02T06:48:28.227Z,45.32
2018-04-02T06:50:54.717Z,44.70
2018-04-02T06:53:21.036Z,45.27
2018-04-02T06:55:47.304Z,43.96
2018-04-02T06:58:13.563Z,44.17
2018-04-02T07:00:39.988Z,44.48
2018-04-02T07:03:06.282Z,44.52
2018-04-02T07:05:32.645Z,44.09
2018-04-02T07:08:00.841Z,44.18
2018-04-02T07:10:27.132Z,44.20
2018-04-02T07:12:53.597Z,43.86
2018-04-02T07:15:19.891Z,43.05
2018-04-02T07:17:46.189Z,43.00
2018-04-02T07:20:12.559Z,43.24
2018-04-02T07:22:38.844Z,41.99
2018-04-02T07:25:05.153Z,41.45
2018-04-02T07:27:31.833Z,40.97
2018-04-02T07:29:58.089Z,40.93
2018-04-02T07:32:24.438Z,42.49
2018-04-02T07:34:56.798Z,42.06
2018-04-02T07:37:29.199Z,41.00
2018-04-02T07:40:01.477Z,41.86
2018-04-02T07:42:33.796Z,42.46
2018-04-02T07:45:06.057Z,42.07
2018-04-02T07:47:38.427Z,40.44
2018-04-02T07:50:11.045Z,41.68
2018-04-02T07:52:43.320Z,41.07
2018-04-02T07:55:15.693Z,41.80
2018-04-02T07:57:47.977Z,41.41
2018-04-02T08:00:20.205Z,39.83
2018-04-02T08:02:52.578Z,39.13
2018-04-02T08:05:21.573Z,39.71
2018-04-02T08:07:48.056Z,40.49
2018-04-02T08:10:14.321Z,39.15
2018-04-02T08:12:40.592Z,40.16
2018-04-02T08:15:07.070Z,40.37
2018-04-02T08:17:33.392Z,39.63
2018-04-02T08:19:59.739Z,40.25
2018-04-02T08:22:26.094Z,40.91
2018-04-02T08:24:52.417Z,40.63
2018-04-02T08:27:18.680Z,41.03
2018-04-02T08:29:45.172Z,38.98
2018-04-02T08:32:11.449Z,39.25
2018-04-02T08:34:37.734Z,37.87
2018-04-02T08:37:04.094Z,38.67
2018-04-02T08:39:30.382Z,38.48
2018-04-02T08:41:56.637Z,37.68
2018-04-02T08:44:22.942Z,39.64
2018-04-02T08:46:49.232Z,38.58
2018-04-02T08:49:15.506Z,38.48
2018-04-02T08:51:41.874Z,37.46
2018-04-02T08:54:08.136Z,38.88
2018-04-02T08:56:34.464Z,37.67
2018-04-02T08:59:00.959Z,37.42
2018-04-02T09:01:27.283Z,36.59
2018-04-02T09:03:53.614Z,36.64
2018-04-02T09:06:19.880Z,34.69
2018-04-02T09:08:46.492Z,36.59
2018-04-02T09:11:12.756Z,34.17
2018-04-02T09:13:39.021Z,35.17
2018-04-02T09:16:05.677Z,35.04
2018-04-02T09:18:31.998Z,36.07
2018-04-02T09:20:58.345Z,35.49
2018-04-02T09:23:24.664Z,34.47
2018-04-02T09:25:50.952Z,34.79
2018-04-02T09:28:17.462Z,34.91
2018-04-02T09:30:43.738Z,35.00
2018-04-02T09:33:09.997Z,35.36
2018-04-02T09:35:36.680Z,35.19
2018-04-02T09:38:03.001Z,33.46
2018-04-02T09:40:29.258Z,34.36
2018-04-02T09:42:55.524Z,33.99
2018-04-02T09:45:21.844Z,34.79
2018-04-02T09:47:51.972Z,35.56
2018-04-02T09:50:18.294Z,36.07
2018-04-02T09:52:45.223Z,34.82
2018-04-02T09:55:11.514Z,34.91
2018-04-02T09:57:37.987Z,33.00
2018-04-02T10:00:04.339Z,32.95
2018-04-02T10:02:35.445Z,33.50
2018-04-02T10:05:01.917Z,35.41
2018-04-02T10:07:28.067Z,33.98
2018-04-02T10:09:54.544Z,33.57
2018-04-02T10:12:21.251Z,31.16
2018-04-02T10:14:47.520Z,32.31
2018-04-02T10:17:13.991Z,31.58
2018-04-02T10:19:40.392Z,32.53
2018-04-02T10:22:06.655Z,34.38
2018-04-02T10:24:33.732Z,33.62
2018-04-02T10:27:00.071Z,32.63
2018-04-02T10:29:26.399Z,33.07
2018-04-02T10:31:52.685Z,34.05
2018-04-02T10:34:19.284Z,31.78
2018-04-02T10:36:45.608Z,34.07
2018-04-02T10:39:11.941Z,31.45
2018-04-02T10:41:38.205Z,32.72
2018-04-02T10:44:04.666Z,32.51
2018-04-02T10:46:30.938Z,34.55
2018-04-02T10:48:57.215Z,34.46
2018-04-02T10:51:23.543Z,33.45
2018-04-02T10:53:49.825Z,33.22
2018-04-02T10:56:16.149Z,33.56
2018-04-02T10:58:42.717Z,32.88
2018-04-02T11:01:09.031Z,35.33
2018-04-02T11:03:35.286Z,35.28
2018-04-02T11:06:01.658Z,36.03
2018-04-02T11:08:27.919Z,35.53
2018-04-02T11:10:54.198Z,35.40
2018-04-02T11:13:20.533Z,34.34
2018-04-02T11:15:47.109Z,34.73
2018-04-02T11:18:13.681Z,33.87
2018-04-02T11:20:40.037Z,33.59
2018-04-02T11:23:06.313Z,33.02
2018-04-02T11:25:32.601Z,33.90
2018-04-02T11:27:58.939Z,32.49
2018-04-02T11:30:25.280Z,33.31
2018-04-02T11:32:51.728Z,33.21
2018-04-02T11:35:18.120Z,33.07
2018-04-02T11:37:44.464Z,31.89
2018-04-02T11:40:10.935Z,31.42
2018-04-02T11:42:37.413Z,31.71
2018-04-02T11:45:03.848Z,32.39
2018-04-02T11:47:30.229Z,32.28
2018-04-02T11:49:56.704Z,32.10
2018-04-02T11:52:26.190Z,32.83
2018-04-02T11:54:52.845Z,32.04
2018-04-02T11:57:19.151Z,31.41
2018-04-02T11:59:45.561Z,32.86
2018-04-02T12:02:13.905Z,33.31
2018-04-02T12:04:40.213Z,33.45
2018-04-02T12:07:06.495Z,35.24
2018-04-02T12:09:33.025Z,34.15
2018-04-02T12:11:59.330Z,32.26
2018-04-02T12:14:25.884Z,31.17
2018-04-02T12:16:52.354Z,31.46
2018-04-02T12:19:18.660Z,30.63
2018-04-02T12:21:44.953Z,31.90
2018-04-02T12:24:11.289Z,31.87
2018-04-02T12:26:37.582Z,32.24
2018-04-02T12:29:03.973Z,32.91
2018-04-02T12:31:30.268Z,31.94
2018-04-02T12:33:56.639Z,31.78
2018-04-02T12:36:23.282Z,31.34
2018-04-02T12:38:49.572Z,31.47
2018-04-02T12:41:15.914Z,31.81
2018-04-02T12:43:42.236Z,31.63
2018-04-02T12:46:08.541Z,32.59
2018-04-02T12:48:34.828Z,29.56
2018-04-02T12:51:01.172Z,31.25
2018-04-02T12:53:27.456Z,32.58
2018-04-02T12:55:53.738Z,31.60
2018-04-02T12:58:20.142Z,32.17
2018-04-02T13:00:46.411Z,33.33
2018-04-02T13:03:12.688Z,33.44
2018-04-02T13:05:39.161Z,33.12
2018-04-02T13:08:05.448Z,33.03
2018-04-02T13:10:32.081Z,32.67
2018-04-02T13:12:58.344Z,33.70
2018-04-02T13:15:24.612Z,33.71
2018-04-02T13:17:50.944Z,32.80
2018-04-02T13:20:17.249Z,32.87
2018-04-02T13:22:43.515Z,32.68
2018-04-02T13:25:09.897Z,31.93
2018-04-02T13:27:36.174Z,31.52
2018-04-02T13:30:02.595Z,28.60
2018-04-02T13:32:28.956Z,30.55
2018-04-02T13:34:55.231Z,28.87
2018-04-02T13:37:21.515Z,29.79
2018-04-02T13:39:47.857Z,31.30
2018-04-02T13:42:14.136Z,30.89
2018-04-02T13:44:40.405Z,30.30
2018-04-02T13:47:06.789Z,30.90
2018-04-02T13:49:33.061Z,29.39
2018-04-02T13:51:59.336Z,28.16
2018-04-02T13:54:25.769Z,29.25
2018-04-02T13:56:52.102Z,27.78
2018-04-02T13:59:18.390Z,27.78
2018-04-02T14:01:44.731Z,27.55
2018-04-02T14:04:11.020Z,26.63
2018-04-02T14:06:37.351Z,25.65
2018-04-02T14:09:04.871Z,25.12
2018-04-02T14:11:31.372Z,26.50
2018-04-02T14:13:57.908Z,25.30
2018-04-02T14:16:24.312Z,25.08
2018-04-02T14:18:50.760Z,23.97
2018-04-02T14:21:17.145Z,22.66
2018-04-02T14:23:43.570Z,22.74
2018-04-02T14:26:09.900Z,24.03
2018-04-02T14:28:36.148Z,24.19
2018-04-02T14:31:02.650Z,23.09
2018-04-02T14:33:28.926Z,23.33
2018-04-02T14:35:55.241Z,24.44
2018-04-02T14:38:21.556Z,24.59
2018-04-02T14:40:51.068Z,24.84
2018-04-02T14:43:17.347Z,23.76
2018-04-02T14:45:43.693Z,24.18
2018-04-02T14:48:10.062Z,25.37
2018-04-02T14:50:36.316Z,26.43
2018-04-02T14:53:02.585Z,26.85
2018-04-02T14:55:31.984Z,26.73
2018-04-02T14:57:58.269Z,28.25
2018-04-02T15:00:24.569Z,30.05
2018-04-02T15:02:53.866Z,32.12
2018-04-02T15:05:20.216Z,32.99
2018-04-02T15:07:46.576Z,34.75
2018-04-02T15:10:12.974Z,36.76
2018-04-02T15:12:39.645Z,34.96
2018-04-02T15:15:05.916Z,35.37
2018-04-02T15:17:34.915Z,36.25
2018-04-02T15:20:01.769Z,35.00
2018-04-02T15:22:28.046Z,34.67
2018-04-02T15:24:54.380Z,35.52
2018-04-02T15:27:20.727Z,36.48
2018-04-02T15:29:47.001Z,36.63
2018-04-02T15:32:13.284Z,37.65
2018-04-02T15:34:39.648Z,36.13
2018-04-02T15:37:05.926Z,36.25
2018-04-02T15:39:32.201Z,36.85
2018-04-02T15:41:58.575Z,36.42
2018-04-02T15:44:24.903Z,37.92
2018-04-02T15:46:51.300Z,37.91
2018-04-02T15:49:17.621Z,38.15
2018-04-02T15:51:43.929Z,38.53
2018-04-02T15:54:10.228Z,39.26
2018-04-02T15:56:36.608Z,38.53
2018-04-02T15:59:02.921Z,38.90
2018-04-02T16:01:29.214Z,37.42
2018-04-02T16:03:55.584Z,36.57
2018-04-02T16:06:21.863Z,36.97
2018-04-02T16:08:48.205Z,38.22
2018-04-02T16:11:17.007Z,39.12
2018-04-02T16:13:43.301Z,40.25
2018-04-02T16:16:09.626Z,39.89
2018-04-02T16:18:35.930Z,39.73
2018-04-02T16:21:02.321Z,40.79
2018-04-02T16:23:28.603Z,40.89
2018-04-02T16:25:55.165Z,40.93
2018-04-02T16:28:21.452Z,41.12
2018-04-02T16:30:47.789Z,41.26
2018-04-02T16:33:14.105Z,41.55
2018-04-02T16:35:40.376Z,42.50
2018-04-02T16:38:06.837Z,42.82
2018-04-02T16:40:33.104Z,41.65
2018-04-02T16:42:59.421Z,42.80
2018-04-02T16:45:25.788Z,43.19
2018-04-02T16:47:52.073Z,43.98
2018-04-02T16:50:18.341Z,44.07
2018-04-02T16:52:44.825Z,43.34
2018-04-02T16:55:14.117Z,44.82
2018-04-02T16:57:40.449Z,45.29
2018-04-02T17:00:06.741Z,45.43
2018-04-02T17:02:33.006Z,45.38
2018-04-02T17:04:59.521Z,45.38
2018-04-02T17:07:25.786Z,45.69
2018-04-02T17:09:52.238Z,47.25
2018-04-02T17:12:18.633Z,49.40
2018-04-02T17:14:44.985Z,50.69
2018-04-02T17:17:11.297Z,50.42
2018-04-02T17:19:37.575Z,51.86
2018-04-02T17:22:03.937Z,51.73
2018-04-02T17:24:30.311Z,51.93
2018-04-02T17:26:56.627Z,52.32
2018-04-02T17:29:23.088Z,52.84
2018-04-02T17:31:49.457Z,53.29
2018-04-02T17:34:15.792Z,53.25
2018-04-02T17:36:42.068Z,53.56
2018-04-02T17:39:08.478Z,53.77
2018-04-02T17:41:34.900Z,53.63
2018-04-02T17:44:01.220Z,54.51
2018-04-02T17:46:27.508Z,53.84
2018-04-02T17:48:53.783Z,54.41
2018-04-02T17:51:20.156Z,55.20
2018-04-02T17:53:46.418Z,54.46
2018-04-02T17:56:12.775Z,54.72
2018-04-02T17:58:39.108Z,55.37
2018-04-02T18:01:06.373Z,55.75
2018-04-02T18:03:32.692Z,56.95
2018-04-02T18:05:58.989Z,55.55
2018-04-02T18:08:25.608Z,57.23
2018-04-02T18:10:51.899Z,57.09
2018-04-02T18:13:18.173Z,57.31
2018-04-02T18:15:44.491Z,56.58
2018-04-02T18:18:11.930Z,56.82
2018-04-02T18:20:38.296Z,57.96
2018-04-02T18:23:04.618Z,56.67
2018-04-02T18:25:31.027Z,57.81
2018-04-02T18:27:57.375Z,58.78
2018-04-02T18:30:23.760Z,55.93
2018-04-02T18:32:53.231Z,58.40
2018-04-02T18:35:19.528Z,56.80
2018-04-02T18:37:45.807Z,58.89
2018-04-02T18:40:12.192Z,57.65
2018-04-02T18:42:39.496Z,59.58
2018-04-02T18:45:05.806Z,60.22
2018-04-02T18:47:35.143Z,59.42
2018-04-02T18:50:01.416Z,59.96
2018-04-02T18:52:27.703Z,60.01
2018-04-02T18:54:57.089Z,59.33
2018-04-02T18:57:23.381Z,59.61
2018-04-02T18:59:49.838Z,59.53
2018-04-02T19:02:16.108Z,59.50
2018-04-02T19:04:42.389Z,60.28
2018-04-02T19:07:08.692Z,60.39
2018-04-02T19:09:35.939Z,60.97
2018-04-02T19:12:04.059Z,60.86
2018-04-02T19:14:30.484Z,60.45
2018-04-02T19:16:56.768Z,60.65
2018-04-02T19:19:23.248Z,60.81
2018-04-02T19:21:49.626Z,60.63
2018-04-02T19:24:15.893Z,60.88
2018-04-02T19:26:42.227Z,61.19
2018-04-02T19:29:08.520Z,60.12
2018-04-02T19:31:34.790Z,61.09
2018-04-02T19:34:03.611Z,61.49
2018-04-02T19:36:29.871Z,61.29
2018-04-02T19:38:56.232Z,60.23
2018-04-02T19:41:22.630Z,61.49
2018-04-02T19:43:48.958Z,61.10
2018-04-02T19:46:15.224Z,61.46
2018-04-02T19:48:41.673Z,61.55
2018-04-02T19:51:07.967Z,61.04
2018-04-02T19:53:34.285Z,61.95
2018-04-02T19:56:00.807Z,62.60
2018-04-02T19:58:27.135Z,62.19
2018-04-02T20:00:53.468Z,61.84
2018-04-02T20:03:19.838Z,62.37
2018-04-02T20:05:46.114Z,62.17
2018-04-02T20:08:12.420Z,62.03
2018-04-02T20:10:38.703Z,61.39
2018-04-02T20:13:04.975Z,61.68
2018-04-02T20:15:31.364Z,62.42
2018-04-02T20:17:57.633Z,62.10
2018-04-02T20:20:23.902Z,62.76
2018-04-02T20:22:50.304Z,64.36
2018-04-02T20:25:16.569Z,64.84
2018-04-02T20:27:42.832Z,64.81
2018-04-02T20:30:09.169Z,63.91
2018-04-02T20:32:35.427Z,64.90
2018-04-02T20:35:01.767Z,65.34
2018-04-02T20:37:28.081Z,64.74
2018-04-02T20:39:54.345Z,63.87
2018-04-02T20:42:21.697Z,64.72
2018-04-02T20:44:47.977Z,65.78
2018-04-02T20:47:17.271Z,65.50
2018-04-02T20:49:43.589Z,65.06
2018-04-02T20:52:09.877Z,64.86
2018-04-02T20:54:36.177Z,64.88
2018-04-02T20:57:02.550Z,66.51
2018-04-02T20:59:28.874Z,66.28
2018-04-02T21:01:56.969Z,65.41
2018-04-02T21:04:23.336Z,66.23
2018-04-02T21:06:49.603Z,66.09
2018-04-02T21:09:15.884Z,65.90
2018-04-02T21:11:42.264Z,65.47
2018-04-02T21:14:10.351Z,65.59
2018-04-02T21:16:36.603Z,65.64
2018-04-02T21:19:02.921Z,66.07
2018-04-02T21:21:29.178Z,65.80
2018-04-02T21:23:55.445Z,65.91
2018-04-02T21:26:21.825Z,65.79
2018-04-02T21:28:48.119Z,66.56
2018-04-02T21:31:14.437Z,67.17
2018-04-02T21:33:40.683Z,66.33
2018-04-02T21:36:07.033Z,67.65
2018-04-02T21:38:33.285Z,68.40
2018-04-02T21:40:59.722Z,68.81
2018-04-02T21:43:26.002Z,68.62
2018-04-02T21:45:52.265Z,67.99
2018-04-02T21:48:18.589Z,67.60
2018-04-02T21:50:44.861Z,67.54
2018-04-02T21:53:11.117Z,68.74
2018-04-02T21:55:37.452Z,70.25
2018-04-02T21:58:03.719Z,69.43
2018-04-02T22:00:29.996Z,69.11
2018-04-02T22:02:56.365Z,69.38
2018-04-02T22:05:22.632Z,69.35
2018-04-02T22:07:48.953Z,70.14
2018-04-02T22:10:15.410Z,70.84
2018-04-02T22:12:41.674Z,70.02
2018-04-02T22:15:08.094Z,70.27
2018-04-02T22:17:34.484Z,70.21
2018-04-02T22:20:00.843Z,69.34
2018-04-02T22:22:27.092Z,68.59
2018-04-02T22:24:53.355Z,68.79
2018-04-02T22:27:19.660Z,68.50
2018-04-02T22:29:46.033Z,68.13
2018-04-02T22:32:12.407Z,68.48
2018-04-02T22:34:38.822Z,70.29
2018-04-02T22:37:05.246Z,70.60
2018-04-02T22:39:31.639Z,69.89
2018-04-02T22:41:58.128Z,69.60
2018-04-02T22:44:24.502Z,69.97
2018-04-02T22:46:51.028Z,69.75
2018-04-02T22:49:17.407Z,70.25
2018-04-02T22:51:43.781Z,70.21
2018-04-02T22:54:10.208Z,69.69
2018-04-02T22:56:36.570Z,69.70
2018-04-02T22:59:02.955Z,69.13
2018-04-02T23:01:29.354Z,69.46
2018-04-02T23:03:55.756Z,69.20
2018-04-02T23:06:22.089Z,69.43
2018-04-02T23:08:48.525Z,69.67
2018-04-02T23:11:14.893Z,69.77
2018-04-02T23:13:41.229Z,69.80
2018-04-02T23:16:07.713Z,70.96
2018-04-02T23:18:34.015Z,70.29
2018-04-02T23:21:00.288Z,69.78
2018-04-02T23:23:26.568Z,71.33
2018-04-02T23:25:52.953Z,71.61
2018-04-02T23:28:19.220Z,70.99
2018-04-02T23:30:45.488Z,70.70
2018-04-02T23:33:11.772Z,70.11
2018-04-02T23:35:38.224Z,70.73
2018-04-02T23:38:04.523Z,70.64
2018-04-02T23:40:30.789Z,72.24
2018-04-02T23:42:57.093Z,74.49
2018-04-02T23:45:23.377Z,76.33
2018-04-02T23:47:49.640Z,76.91
2018-04-02T23:50:15.954Z,77.20
2018-04-02T23:52:42.289Z,77.78
2018-04-02T23:55:08.598Z,77.06
2018-04-02T23:57:35.026Z,75.65
